Time;durP1;ratioP1;P1;durP2;ratioP2;P2;SDS_P1;SDS_P2;PMS_P1;PMS_P2;Temp;Humidity;BMP_temperature;BMP_pressure;BME280_temperature;BME280_humidity;BME280_pressure;Samples;Min_cycle;Max_cycle;Signal;HPM_P1;HPM_P2
2023/03/07 00:01:49;;;;;;;0.10;0.10;;;4.60;99.90;;;;;;5042898;28;20201;-85
2023/03/07 00:04:16;;;;;;;0.10;0.10;;;4.60;99.90;;;;;;5045269;28;20215;-85
2023/03/07 00:06:41;;;;;;;0.10;0.10;;;4.70;99.90;;;;;;5040975;28;20284;-87
2023/03/07 00:09:08;;;;;;;0.10;0.10;;;4.70;99.90;;;;;;5045670;28;20194;-86
2023/03/07 00:11:34;;;;;;;0.10;0.10;;;4.80;99.90;;;;;;5053288;28;20225;-86
2023/03/07 00:14:00;;;;;;;0.10;0.10;;;4.80;99.90;;;;;;5046246;28;20202;-87
2023/03/07 00:16:26;;;;;;;0.10;0.10;;;4.70;99.90;;;;;;5045685;28;20197;-86
2023/03/07 00:18:51;;;;;;;0.10;0.10;;;4.70;99.90;;;;;;5041644;28;20703;-86
2023/03/07 00:21:19;;;;;;;0.10;0.10;;;4.70;99.90;;;;;;5041635;28;20198;-86
2023/03/07 00:23:45;;;;;;;0.10;0.10;;;4.70;99.90;;;;;;5043829;28;20207;-87
2023/03/07 00:26:20;;;;;;;0.10;0.10;;;4.70;99.90;;;;;;5045244;28;20672;-86
2023/03/07 00:28:48;;;;;;;0.10;0.10;;;4.70;99.90;;;;;;5056442;28;20246;-86
2023/03/07 00:31:14;;;;;;;0.10;0.10;;;4.70;99.90;;;;;;5055337;28;20190;-87
2023/03/07 00:33:40;;;;;;;0.10;0.10;;;4.70;99.90;;;;;;5036604;28;20233;-86
2023/03/07 00:36:11;;;;;;;0.10;0.10;;;4.60;99.90;;;;;;5043797;28;20210;-87
2023/03/07 00:38:37;;;;;;;0.10;0.10;;;4.50;99.90;;;;;;5045346;28;20269;-87
2023/03/07 00:41:12;;;;;;;0.10;0.10;;;4.40;99.90;;;;;;5044405;28;20269;-86
2023/03/07 00:43:38;;;;;;;0.10;0.10;;;4.40;99.90;;;;;;5044843;28;20205;-87
2023/03/07 00:46:04;;;;;;;0.33;0.33;;;4.40;99.90;;;;;;5041950;28;20353;-87
2023/03/07 00:48:33;;;;;;;0.10;0.10;;;4.40;99.90;;;;;;5042856;28;20192;-86
2023/03/07 00:50:59;;;;;;;0.10;0.10;;;4.40;99.90;;;;;;5041931;28;20236;-86
2023/03/07 00:53:24;;;;;;;0.10;0.10;;;4.40;99.90;;;;;;5043124;28;20687;-87
2023/03/07 00:56:00;;;;;;;0.10;0.10;;;4.40;99.90;;;;;;5041553;28;20202;-87
2023/03/07 00:58:27;;;;;;;0.10;0.10;;;4.50;99.90;;;;;;5041827;28;20201;-87
2023/03/07 01:00:53;;;;;;;0.10;0.10;;;4.40;99.90;;;;;;5043047;28;20201;-86
2023/03/07 01:03:20;;;;;;;0.10;0.10;;;4.40;99.90;;;;;;5042674;28;20609;-87
2023/03/07 01:05:45;;;;;;;0.10;0.10;;;4.40;99.90;;;;;;5040349;28;20185;-87
2023/03/07 01:08:11;;;;;;;0.10;0.10;;;4.50;99.90;;;;;;5044976;28;20185;-87
2023/03/07 01:10:37;;;;;;;0.10;0.10;;;4.50;99.90;;;;;;5047381;28;20186;-86
2023/03/07 01:13:03;;;;;;;0.10;0.10;;;4.50;99.90;;;;;;5045626;28;20193;-86
2023/03/07 01:15:29;;;;;;;0.10;0.10;;;4.60;99.90;;;;;;5046530;28;20218;-86
2023/03/07 01:17:54;;;;;;;0.10;0.10;;;4.50;99.90;;;;;;5043388;28;20213;-86
2023/03/07 01:20:20;;;;;;;0.10;0.10;;;4.50;99.90;;;;;;5045575;28;20206;-86
2023/03/07 01:22:46;;;;;;;0.10;0.10;;;4.60;99.90;;;;;;5045905;28;20229;-86
2023/03/07 01:25:12;;;;;;;0.10;0.10;;;4.50;99.90;;;;;;5043932;28;20268;-86
2023/03/07 01:27:38;;;;;;;0.10;0.10;;;4.40;99.90;;;;;;5045833;28;20502;-86
2023/03/07 01:30:04;;;;;;;0.10;0.10;;;4.50;99.90;;;;;;5046878;28;20193;-87
2023/03/07 01:32:30;;;;;;;0.10;0.10;;;4.50;99.90;;;;;;5039190;28;20190;-87
2023/03/07 01:34:55;;;;;;;0.10;0.10;;;4.50;99.90;;;;;;5046656;28;20204;-87
2023/03/07 01:37:21;;;;;;;0.10;0.10;;;4.50;99.90;;;;;;5046139;28;20218;-86
2023/03/07 01:39:50;;;;;;;0.10;0.10;;;4.50;99.90;;;;;;5045671;28;20293;-86
2023/03/07 01:42:16;;;;;;;0.10;0.10;;;4.50;99.90;;;;;;5045709;28;20213;-87
2023/03/07 01:45:00;;;;;;;0.10;0.10;;;4.50;99.90;;;;;;5044708;28;20178;-86
2023/03/07 01:47:25;;;;;;;0.10;0.10;;;4.50;99.90;;;;;;5045058;28;20304;-86
2023/03/07 01:49:51;;;;;;;0.10;0.10;;;4.50;99.90;;;;;;5047358;28;20186;-86
2023/03/07 01:52:22;;;;;;;0.10;0.10;;;4.50;99.90;;;;;;5041122;28;20731;-87
2023/03/07 01:55:01;;;;;;;0.10;0.10;;;4.50;99.90;;;;;;5040623;28;20184;-87
2023/03/07 01:57:33;;;;;;;0.10;0.10;;;4.50;99.90;;;;;;5049347;28;20209;-87
2023/03/07 02:00:05;;;;;;;0.10;0.10;;;4.50;99.90;;;;;;5046649;28;20184;-87
2023/03/07 02:02:32;;;;;;;0.10;0.10;;;4.50;99.90;;;;;;5047100;28;20211;-86
2023/03/07 02:05:15;;;;;;;0.10;0.10;;;4.50;99.90;;;;;;5047924;28;20220;-86
2023/03/07 02:07:47;;;;;;;0.10;0.10;;;4.50;99.90;;;;;;5045878;28;20701;-86
2023/03/07 02:10:14;;;;;;;0.10;0.10;;;4.50;99.90;;;;;;5045250;28;20181;-87
2023/03/07 02:12:41;;;;;;;0.10;0.10;;;4.60;99.90;;;;;;5047570;28;20203;-87
2023/03/07 02:15:11;;;;;;;0.10;0.10;;;4.50;99.90;;;;;;5044963;28;20212;-86
2023/03/07 02:17:38;;;;;;;0.10;0.10;;;4.50;99.90;;;;;;5046560;28;20320;-87
2023/03/07 02:20:07;;;;;;;0.10;0.10;;;4.50;99.90;;;;;;5046865;28;20183;-87
2023/03/07 02:22:33;;;;;;;0.10;0.10;;;4.50;99.90;;;;;;5045759;28;20209;-86
2023/03/07 02:25:05;;;;;;;0.10;0.10;;;4.50;99.90;;;;;;5051358;28;20596;-87
2023/03/07 02:27:33;;;;;;;0.07;0.07;;;4.50;99.90;;;;;;5049158;28;20201;-87
2023/03/07 02:29:59;;;;;;;0.10;0.10;;;4.50;99.90;;;;;;5047422;28;20672;-87
2023/03/07 02:32:24;;;;;;;0.10;0.10;;;4.50;99.90;;;;;;5045199;28;20265;-87
2023/03/07 02:34:50;;;;;;;0.10;0.10;;;4.50;99.90;;;;;;5056201;28;20276;-87
2023/03/07 02:37:21;;;;;;;0.00;0.00;;;4.60;99.90;;;;;;5050718;28;20211;-85
2023/03/07 02:39:47;;;;;;;0.10;0.10;;;4.60;99.90;;;;;;5062963;28;20185;-86
2023/03/07 02:42:21;;;;;;;0.10;0.10;;;4.60;99.90;;;;;;5043903;28;20205;-86
2023/03/07 02:44:54;;;;;;;0.10;0.10;;;4.60;99.90;;;;;;5043236;28;20215;-86
2023/03/07 02:47:19;;;;;;;0.10;0.10;;;4.60;99.90;;;;;;5044056;28;20204;-86
2023/03/07 02:49:45;;;;;;;0.10;0.10;;;4.60;99.90;;;;;;5042746;28;20545;-87
2023/03/07 02:52:10;;;;;;;0.10;0.10;;;4.60;99.90;;;;;;5041135;28;20552;-87
2023/03/07 02:54:36;;;;;;;0.10;0.10;;;4.60;99.90;;;;;;5045131;28;20196;-86
2023/03/07 02:57:03;;;;;;;0.10;0.10;;;4.60;99.90;;;;;;5043203;28;20201;-85
2023/03/07 02:59:29;;;;;;;0.10;0.10;;;4.60;99.90;;;;;;5044787;28;21139;-86
2023/03/07 03:01:55;;;;;;;0.10;0.10;;;4.60;99.90;;;;;;5043719;28;20238;-87
2023/03/07 03:04:21;;;;;;;0.10;0.10;;;4.60;99.90;;;;;;5045626;28;20610;-87
2023/03/07 03:06:47;;;;;;;0.10;0.10;;;4.50;99.90;;;;;;5046715;28;20189;-86
2023/03/07 03:09:12;;;;;;;0.10;0.10;;;4.60;99.90;;;;;;5042478;28;20193;-87
2023/03/07 03:11:38;;;;;;;0.10;0.10;;;4.60;99.90;;;;;;5061279;28;20171;-86
2023/03/07 03:14:03;;;;;;;0.10;0.10;;;4.60;99.90;;;;;;5044711;28;20199;-86
2023/03/07 03:16:29;;;;;;;0.10;0.10;;;4.60;99.90;;;;;;5044196;28;20255;-87
2023/03/07 03:18:54;;;;;;;0.10;0.10;;;4.60;99.90;;;;;;5044510;28;20568;-86
2023/03/07 03:21:20;;;;;;;0.10;0.10;;;4.60;99.90;;;;;;5041705;28;20187;-87
2023/03/07 03:23:46;;;;;;;0.10;0.10;;;4.60;99.90;;;;;;5043661;28;20292;-87
2023/03/07 03:26:11;;;;;;;0.10;0.10;;;4.60;99.90;;;;;;5040275;28;20209;-87
2023/03/07 03:28:38;;;;;;;0.10;0.10;;;4.60;99.90;;;;;;5043621;28;20365;-86
2023/03/07 03:31:07;;;;;;;0.10;0.10;;;4.70;99.90;;;;;;5045649;28;20185;-86
2023/03/07 03:33:32;;;;;;;0.10;0.10;;;4.60;99.90;;;;;;5041006;28;20177;-87
2023/03/07 03:35:59;;;;;;;0.10;0.10;;;4.70;99.90;;;;;;5044323;28;20278;-86
2023/03/07 03:38:26;;;;;;;0.10;0.10;;;4.70;99.90;;;;;;5042325;28;20188;-86
2023/03/07 03:40:51;;;;;;;0.10;0.10;;;4.60;99.90;;;;;;5043936;28;20558;-86
2023/03/07 03:43:18;;;;;;;0.10;0.10;;;4.60;99.90;;;;;;5040940;28;20216;-86
2023/03/07 03:45:43;;;;;;;0.10;0.10;;;4.50;99.90;;;;;;5045063;28;20182;-86
2023/03/07 03:48:09;;;;;;;0.10;0.10;;;4.60;99.90;;;;;;5045580;28;20202;-87
2023/03/07 03:50:35;;;;;;;0.10;0.10;;;4.50;99.90;;;;;;5041589;28;20184;-86
2023/03/07 03:53:01;;;;;;;0.10;0.10;;;4.50;99.90;;;;;;5060322;28;20276;-87
2023/03/07 03:55:27;;;;;;;0.10;0.10;;;4.50;99.90;;;;;;5042351;28;20805;-87
2023/03/07 03:57:52;;;;;;;0.10;0.10;;;4.60;99.90;;;;;;5038025;28;20229;-86
2023/03/07 04:00:18;;;;;;;0.10;0.10;;;4.60;99.90;;;;;;5039754;28;20190;-86
2023/03/07 04:02:45;;;;;;;0.10;0.10;;;4.50;99.90;;;;;;5043364;28;20213;-87
2023/03/07 04:05:11;;;;;;;0.10;0.10;;;4.50;99.90;;;;;;5039389;28;20724;-86
2023/03/07 04:07:37;;;;;;;0.10;0.10;;;4.50;99.90;;;;;;5042638;28;20205;-87
2023/03/07 04:10:04;;;;;;;0.10;0.10;;;4.50;99.90;;;;;;5043130;28;20184;-86
2023/03/07 04:12:30;;;;;;;0.10;0.10;;;4.60;99.90;;;;;;5039069;28;20190;-86
2023/03/07 04:14:55;;;;;;;0.03;0.03;;;4.60;99.90;;;;;;5043410;28;20182;-86
2023/03/07 04:17:21;;;;;;;0.10;0.10;;;4.60;99.90;;;;;;5043896;28;20206;-87
2023/03/07 04:19:46;;;;;;;0.10;0.10;;;4.70;99.90;;;;;;5041229;28;20195;-87
2023/03/07 04:22:12;;;;;;;0.10;0.10;;;4.60;99.90;;;;;;5040033;28;20192;-86
2023/03/07 04:24:37;;;;;;;0.10;0.10;;;4.70;99.90;;;;;;5044392;28;20195;-86
2023/03/07 04:27:03;;;;;;;0.10;0.10;;;4.70;99.90;;;;;;5042015;28;20198;-86
2023/03/07 04:29:29;;;;;;;0.10;0.10;;;4.70;99.90;;;;;;5044192;28;20174;-86
2023/03/07 04:31:55;;;;;;;0.10;0.10;;;4.60;99.90;;;;;;5040989;28;20181;-86
2023/03/07 04:34:21;;;;;;;0.10;0.10;;;4.60;99.90;;;;;;5039267;28;20247;-85
2023/03/07 04:36:47;;;;;;;0.10;0.10;;;4.70;99.90;;;;;;5041382;28;20248;-87
2023/03/07 04:39:12;;;;;;;0.10;0.10;;;4.70;99.90;;;;;;5046474;28;20192;-86
2023/03/07 04:41:38;;;;;;;0.10;0.10;;;4.80;99.90;;;;;;5048776;28;20177;-86
2023/03/07 04:44:03;;;;;;;0.10;0.10;;;4.70;99.90;;;;;;5046879;28;20596;-86
2023/03/07 04:46:29;;;;;;;0.10;0.10;;;4.80;99.90;;;;;;5050490;28;20231;-86
2023/03/07 04:48:54;;;;;;;0.10;0.10;;;4.70;99.90;;;;;;5048570;28;20193;-86
2023/03/07 04:51:20;;;;;;;0.10;0.10;;;4.70;99.90;;;;;;5045660;28;20250;-87
2023/03/07 04:53:46;;;;;;;0.10;0.10;;;4.80;99.90;;;;;;5050050;28;20219;-87
2023/03/07 04:56:14;;;;;;;0.10;0.10;;;4.80;99.90;;;;;;5045624;28;20218;-86
2023/03/07 04:58:40;;;;;;;0.10;0.10;;;4.80;99.90;;;;;;5047108;28;20197;-85
2023/03/07 05:01:06;;;;;;;0.10;0.10;;;4.70;99.90;;;;;;5048871;28;20682;-86
2023/03/07 05:03:32;;;;;;;0.10;0.10;;;4.70;99.90;;;;;;5047794;28;20209;-86
2023/03/07 05:06:02;;;;;;;0.10;0.10;;;4.80;99.90;;;;;;5048988;28;20670;-86
2023/03/07 05:08:27;;;;;;;0.10;0.10;;;4.80;99.90;;;;;;5046322;28;20181;-87
2023/03/07 05:10:53;;;;;;;0.10;0.10;;;4.80;99.90;;;;;;5045020;28;20177;-86
2023/03/07 05:13:19;;;;;;;0.10;0.10;;;4.80;99.90;;;;;;5047402;28;21072;-86
2023/03/07 05:15:52;;;;;;;0.10;0.10;;;4.80;99.90;;;;;;5048067;28;20276;-86
2023/03/07 05:18:18;;;;;;;0.10;0.10;;;4.80;99.90;;;;;;5045783;28;20654;-87
2023/03/07 05:20:43;;;;;;;0.10;0.10;;;4.70;99.90;;;;;;5045632;28;20195;-87
2023/03/07 05:23:09;;;;;;;0.10;0.10;;;4.80;99.90;;;;;;5044390;28;20241;-86
2023/03/07 05:25:34;;;;;;;0.10;0.10;;;4.80;99.90;;;;;;5048692;28;20244;-87
2023/03/07 05:28:00;;;;;;;0.10;0.10;;;4.80;99.90;;;;;;5047631;28;20193;-87
2023/03/07 05:30:25;;;;;;;0.10;0.10;;;4.80;99.90;;;;;;5045106;28;20183;-86
2023/03/07 05:32:51;;;;;;;0.10;0.10;;;4.80;99.90;;;;;;5044895;28;20200;-86
2023/03/07 05:35:17;;;;;;;0.10;0.10;;;4.80;99.90;;;;;;5044851;28;20192;-86
2023/03/07 05:37:42;;;;;;;0.10;0.10;;;4.80;99.90;;;;;;5043103;28;20255;-85
2023/03/07 05:40:09;;;;;;;0.10;0.10;;;4.80;99.90;;;;;;5047509;28;20280;-84
2023/03/07 05:42:35;;;;;;;0.20;0.20;;;4.80;99.90;;;;;;5047400;28;20575;-85
2023/03/07 05:45:00;;;;;;;0.10;0.10;;;4.80;99.90;;;;;;5043427;28;20189;-85
2023/03/07 05:47:26;;;;;;;0.10;0.10;;;4.80;99.90;;;;;;5037326;28;20694;-85
2023/03/07 05:49:51;;;;;;;0.10;0.10;;;4.80;99.90;;;;;;5044841;28;20209;-85
2023/03/07 05:52:19;;;;;;;0.10;0.10;;;4.70;99.90;;;;;;5044992;28;20193;-85
2023/03/07 05:54:44;;;;;;;0.10;0.10;;;4.70;99.90;;;;;;5048668;28;20223;-85
2023/03/07 05:57:10;;;;;;;0.10;0.10;;;4.70;99.90;;;;;;5066459;28;21118;-85
2023/03/07 05:59:36;;;;;;;0.10;0.10;;;4.70;99.90;;;;;;5048964;28;20178;-85
2023/03/07 06:02:01;;;;;;;0.10;0.10;;;4.70;99.90;;;;;;5049023;28;20187;-86
2023/03/07 06:04:27;;;;;;;0.10;0.10;;;4.70;99.90;;;;;;5049988;28;20190;-85
2023/03/07 06:06:52;;;;;;;0.10;0.10;;;4.70;99.90;;;;;;5050183;28;20206;-84
2023/03/07 06:09:18;;;;;;;0.10;0.10;;;4.70;99.90;;;;;;5049858;28;20210;-85
2023/03/07 06:11:44;;;;;;;0.40;0.40;;;4.70;99.90;;;;;;5044429;28;20213;-85
2023/03/07 06:14:09;;;;;;;0.10;0.10;;;4.70;99.90;;;;;;5050380;28;20214;-83
2023/03/07 06:16:35;;;;;;;0.10;0.10;;;4.70;99.90;;;;;;5055564;28;20207;-81
2023/03/07 06:19:00;;;;;;;0.00;0.00;;;4.60;99.90;;;;;;5057198;28;20264;-83
2023/03/07 06:21:26;;;;;;;0.10;0.10;;;4.60;99.90;;;;;;5050612;28;20209;-83
2023/03/07 06:23:51;;;;;;;0.10;0.10;;;4.60;99.90;;;;;;5046396;28;20256;-84
2023/03/07 06:26:17;;;;;;;0.10;0.10;;;4.60;99.90;;;;;;5043114;28;20242;-83
2023/03/07 06:28:43;;;;;;;0.10;0.10;;;4.60;99.90;;;;;;5059478;28;20190;-83
2023/03/07 06:31:10;;;;;;;0.10;0.10;;;4.60;99.90;;;;;;5046671;28;20195;-83
2023/03/07 06:33:36;;;;;;;0.00;0.00;;;4.60;99.90;;;;;;5048295;28;20186;-83
2023/03/07 06:36:07;;;;;;;0.10;0.10;;;4.70;99.90;;;;;;5048023;28;20559;-83
2023/03/07 06:38:32;;;;;;;0.10;0.10;;;4.70;99.90;;;;;;5049827;28;20190;-83
2023/03/07 06:40:58;;;;;;;0.10;0.10;;;4.70;99.90;;;;;;5046366;28;20192;-83
2023/03/07 06:43:23;;;;;;;0.10;0.10;;;4.70;99.90;;;;;;5048664;28;20235;-83
2023/03/07 06:45:49;;;;;;;0.10;0.10;;;4.60;99.90;;;;;;5044180;28;20739;-83
2023/03/07 06:48:16;;;;;;;0.10;0.10;;;4.60;99.90;;;;;;5046450;28;20195;-83
2023/03/07 06:50:42;;;;;;;0.10;0.10;;;4.70;99.90;;;;;;5045625;28;20611;-83
2023/03/07 06:53:07;;;;;;;0.10;0.10;;;4.70;99.90;;;;;;5048743;28;20196;-83
2023/03/07 06:55:33;;;;;;;0.10;0.10;;;4.70;99.90;;;;;;5047306;28;20186;-82
2023/03/07 06:57:59;;;;;;;0.10;0.10;;;4.80;99.90;;;;;;5046430;28;20178;-83
2023/03/07 07:00:24;;;;;;;0.10;0.10;;;4.80;99.90;;;;;;5044870;28;20183;-85
2023/03/07 07:02:50;;;;;;;0.10;0.10;;;4.80;99.90;;;;;;5044206;28;20264;-83
2023/03/07 07:05:16;;;;;;;0.10;0.10;;;4.80;99.90;;;;;;5045749;28;20185;-83
2023/03/07 07:07:41;;;;;;;0.10;0.10;;;4.80;99.90;;;;;;5040349;28;20202;-83
2023/03/07 07:10:07;;;;;;;0.10;0.10;;;4.90;99.90;;;;;;5043005;28;20186;-84
2023/03/07 07:12:33;;;;;;;0.07;0.07;;;4.90;99.90;;;;;;5062068;28;20186;-83
2023/03/07 07:15:01;;;;;;;0.10;0.10;;;5.00;99.90;;;;;;5061676;28;20266;-83
2023/03/07 07:17:28;;;;;;;0.10;0.10;;;5.00;99.90;;;;;;5035082;28;20694;-85
2023/03/07 07:19:53;;;;;;;0.10;0.10;;;5.10;99.90;;;;;;5044217;28;20201;-84
2023/03/07 07:22:19;;;;;;;0.10;0.10;;;5.10;99.90;;;;;;5043772;28;20193;-83
2023/03/07 07:24:45;;;;;;;0.43;0.43;;;5.00;99.90;;;;;;5058117;28;20655;-84
2023/03/07 07:27:10;;;;;;;0.10;0.10;;;5.00;99.90;;;;;;5044639;28;20206;-83
2023/03/07 07:29:36;;;;;;;0.10;0.10;;;5.00;99.90;;;;;;5039620;28;20189;-84
2023/03/07 07:32:01;;;;;;;0.10;0.10;;;5.00;99.90;;;;;;5044390;28;20667;-83
2023/03/07 07:34:27;;;;;;;5.90;5.53;;;5.10;99.90;;;;;;5043607;28;20256;-83
2023/03/07 07:36:52;;;;;;;0.10;0.10;;;5.10;99.90;;;;;;5043708;28;20694;-83
2023/03/07 07:39:18;;;;;;;0.10;0.10;;;5.10;99.90;;;;;;5045295;28;20679;-83
2023/03/07 07:41:45;;;;;;;0.10;0.10;;;5.10;99.90;;;;;;5040849;28;20194;-88
2023/03/07 07:44:10;;;;;;;0.10;0.10;;;5.10;99.90;;;;;;5048418;28;20315;-88
2023/03/07 07:46:36;;;;;;;0.10;0.10;;;5.10;99.90;;;;;;5049120;28;20228;-87
2023/03/07 07:49:02;;;;;;;0.10;0.10;;;5.20;99.90;;;;;;5047837;28;20170;-88
2023/03/07 07:51:28;;;;;;;0.10;0.10;;;5.30;99.90;;;;;;5052073;28;20186;-88
2023/03/07 07:53:54;;;;;;;0.10;0.10;;;5.30;99.90;;;;;;5049647;28;20213;-88
2023/03/07 07:56:20;;;;;;;0.10;0.10;;;5.40;99.90;;;;;;5046855;28;20294;-87
2023/03/07 07:58:45;;;;;;;0.10;0.10;;;5.50;99.90;;;;;;5049916;28;20186;-88
2023/03/07 08:01:16;;;;;;;0.10;0.10;;;5.60;99.90;;;;;;5048761;28;20193;-89
2023/03/07 08:03:42;;;;;;;0.10;0.10;;;5.60;99.90;;;;;;5058916;28;20216;-83
2023/03/07 08:06:08;;;;;;;0.10;0.10;;;5.70;99.90;;;;;;5043491;28;20320;-83
2023/03/07 08:08:33;;;;;;;0.10;0.10;;;5.70;99.90;;;;;;5045145;28;20177;-83
2023/03/07 08:10:59;;;;;;;0.10;0.10;;;5.80;99.90;;;;;;5043235;28;20193;-83
2023/03/07 08:13:24;;;;;;;0.30;0.30;;;5.70;99.90;;;;;;5041075;28;20722;-83
2023/03/07 08:15:50;;;;;;;0.10;0.10;;;5.80;99.90;;;;;;5041397;28;20266;-83
2023/03/07 08:18:15;;;;;;;0.10;0.10;;;5.90;99.90;;;;;;5040497;28;20279;-83
2023/03/07 08:20:41;;;;;;;0.10;0.10;;;6.00;99.90;;;;;;5042239;28;20213;-83
2023/03/07 08:23:06;;;;;;;0.10;0.10;;;6.10;99.90;;;;;;5043595;28;20211;-83
2023/03/07 08:25:32;;;;;;;0.10;0.10;;;6.10;99.90;;;;;;5043407;28;20254;-83
2023/03/07 08:27:58;;;;;;;0.00;0.00;;;6.30;99.90;;;;;;5045631;28;21066;-83
2023/03/07 08:30:26;;;;;;;0.10;0.10;;;6.50;99.90;;;;;;5044731;28;20266;-83
2023/03/07 08:32:53;;;;;;;0.10;0.10;;;6.50;99.90;;;;;;5042952;28;20672;-83
2023/03/07 08:35:19;;;;;;;0.10;0.10;;;6.60;99.90;;;;;;5043107;28;20195;-83
2023/03/07 08:37:47;;;;;;;0.10;0.10;;;6.80;99.90;;;;;;5043699;28;20305;-85
2023/03/07 08:40:14;;;;;;;0.10;0.10;;;6.90;99.90;;;;;;5040486;28;20214;-83
2023/03/07 08:42:43;;;;;;;0.00;0.00;;;7.10;99.90;;;;;;5041600;28;20282;-84
2023/03/07 08:45:09;;;;;;;0.10;0.10;;;7.20;99.90;;;;;;5037821;28;20189;-84
2023/03/07 08:47:35;;;;;;;0.33;0.33;;;7.20;99.90;;;;;;5041742;28;20225;-82
2023/03/07 08:50:02;;;;;;;0.10;0.10;;;7.40;99.90;;;;;;5042360;28;20187;-83
2023/03/07 08:52:29;;;;;;;0.10;0.10;;;7.60;99.90;;;;;;5044159;28;20582;-83
2023/03/07 08:54:54;;;;;;;0.10;0.10;;;7.70;99.90;;;;;;5043245;28;20270;-83
2023/03/07 08:57:20;;;;;;;0.03;0.03;;;7.50;99.90;;;;;;5044772;28;20232;-83
2023/03/07 08:59:45;;;;;;;0.10;0.10;;;7.40;99.90;;;;;;5048142;28;20662;-83
2023/03/07 09:02:11;;;;;;;0.10;0.10;;;7.40;99.90;;;;;;5046072;28;20211;-84
2023/03/07 09:04:37;;;;;;;0.10;0.10;;;7.30;99.90;;;;;;5043362;28;20189;-84
2023/03/07 09:07:02;;;;;;;0.10;0.10;;;7.40;99.90;;;;;;5044447;28;20263;-84
2023/03/07 09:09:30;;;;;;;0.10;0.10;;;7.40;99.90;;;;;;5044674;28;20196;-82
2023/03/07 09:11:56;;;;;;;0.10;0.10;;;7.50;99.90;;;;;;5041803;28;20189;-83
2023/03/07 09:14:21;;;;;;;1.70;1.60;;;7.50;99.90;;;;;;5048006;28;20197;-85
2023/03/07 09:16:47;;;;;;;0.10;0.10;;;7.50;99.90;;;;;;5045734;28;20209;-85
2023/03/07 09:19:12;;;;;;;0.10;0.10;;;7.60;99.90;;;;;;5043450;28;20780;-85
2023/03/07 09:21:38;;;;;;;0.10;0.10;;;7.80;99.90;;;;;;5041157;28;21360;-83
2023/03/07 09:24:04;;;;;;;0.10;0.10;;;7.60;99.90;;;;;;5043432;28;20218;-83
2023/03/07 09:26:29;;;;;;;0.10;0.10;;;7.70;99.90;;;;;;5045338;28;20302;-83
2023/03/07 09:28:55;;;;;;;0.10;0.10;;;7.70;99.90;;;;;;5045231;28;20274;-86
2023/03/07 09:31:20;;;;;;;0.10;0.10;;;7.80;99.90;;;;;;5046020;28;20281;-85
2023/03/07 09:33:46;;;;;;;0.10;0.10;;;7.70;99.90;;;;;;5044597;28;20203;-84
2023/03/07 09:36:12;;;;;;;0.10;0.10;;;7.90;99.90;;;;;;5048690;28;20220;-83
2023/03/07 09:38:38;;;;;;;0.10;0.10;;;7.90;99.90;;;;;;5051171;28;20192;-83
2023/03/07 09:41:33;;;;;;;0.10;0.10;;;8.10;99.90;;;;;;5050941;28;20188;-82
2023/03/07 09:44:07;;;;;;;0.10;0.10;;;8.20;99.90;;;;;;5050812;28;20204;-82
2023/03/07 09:47:01;;;;;;;0.10;0.10;;;8.30;99.90;;;;;;5048005;28;20256;-85
2023/03/07 09:49:37;;;;;;;0.10;0.10;;;8.20;99.90;;;;;;5039402;28;20200;-84
2023/03/07 09:52:12;;;;;;;0.10;0.10;;;8.20;99.90;;;;;;5045714;28;20197;-84
2023/03/07 09:54:43;;;;;;;0.10;0.10;;;8.20;99.90;;;;;;5046685;28;20222;-83
2023/03/07 09:57:16;;;;;;;0.10;0.10;;;8.30;99.90;;;;;;5064490;28;20221;-83
2023/03/07 09:59:52;;;;;;;0.10;0.10;;;8.10;99.90;;;;;;5057185;28;20533;-84
2023/03/07 10:02:33;;;;;;;0.10;0.10;;;8.20;99.90;;;;;;5052778;28;20380;-84
2023/03/07 10:05:36;;;;;;;0.10;0.10;;;8.20;99.90;;;;;;5050705;28;20189;-83
2023/03/07 10:08:03;;;;;;;0.10;0.10;;;8.30;99.90;;;;;;5047254;28;20204;-83
2023/03/07 10:10:48;;;;;;;0.10;0.10;;;8.40;99.90;;;;;;5046523;28;20189;-84
2023/03/07 10:13:26;;;;;;;0.10;0.10;;;8.40;99.90;;;;;;5063611;28;20191;-84
2023/03/07 10:15:54;;;;;;;0.10;0.10;;;8.40;99.90;;;;;;5046821;28;22192;-85
2023/03/07 10:18:42;;;;;;;0.10;0.10;;;8.40;99.90;;;;;;5046401;28;20667;-83
2023/03/07 10:21:13;;;;;;;0.10;0.10;;;8.40;99.90;;;;;;5047764;28;20290;-83
2023/03/07 10:23:57;;;;;;;0.10;0.10;;;8.50;99.90;;;;;;5046525;28;20217;-84
2023/03/07 10:26:37;;;;;;;0.10;0.10;;;8.60;99.90;;;;;;5049436;28;20217;-82
2023/03/07 10:29:18;;;;;;;0.10;0.10;;;8.60;99.90;;;;;;5047143;28;20186;-82
2023/03/07 10:31:49;;;;;;;0.10;0.10;;;8.50;99.90;;;;;;5050878;28;20991;-82
2023/03/07 10:34:29;;;;;;;0.10;0.10;;;8.80;99.90;;;;;;5046627;28;20184;-82
2023/03/07 10:37:18;;;;;;;0.10;0.10;;;9.00;99.90;;;;;;5048934;28;20209;-82
2023/03/07 10:39:52;;;;;;;0.10;0.10;;;9.10;99.90;;;;;;5055150;28;20215;-81
2023/03/07 10:42:21;;;;;;;0.10;0.10;;;9.10;99.90;;;;;;5046654;28;20216;-83
2023/03/07 10:44:48;;;;;;;0.10;0.10;;;9.20;99.90;;;;;;5045520;28;20255;-82
2023/03/07 10:47:22;;;;;;;0.10;0.10;;;9.40;99.90;;;;;;5046194;28;20276;-82
2023/03/07 10:49:52;;;;;;;0.10;0.10;;;9.50;99.90;;;;;;5045580;28;20239;-82
2023/03/07 10:52:42;;;;;;;0.10;0.10;;;9.50;99.90;;;;;;5045003;28;20209;-82
2023/03/07 10:55:32;;;;;;;0.10;0.10;;;9.50;99.90;;;;;;5047086;28;20189;-82
2023/03/07 10:58:24;;;;;;;0.10;0.10;;;9.70;99.90;;;;;;5040717;28;20260;-82
2023/03/07 11:01:05;;;;;;;0.10;0.10;;;10.10;99.90;;;;;;5045390;28;20247;-82
2023/03/07 11:03:44;;;;;;;0.10;0.10;;;10.30;99.90;;;;;;5046382;28;20232;-82
2023/03/07 11:06:38;;;;;;;0.10;0.10;;;10.50;99.90;;;;;;5045464;28;21537;-82
2023/03/07 11:09:25;;;;;;;0.00;0.00;;;10.30;99.90;;;;;;5043648;28;20250;-82
2023/03/07 11:11:58;;;;;;;0.10;0.10;;;10.40;99.90;;;;;;5044643;28;20679;-82
2023/03/07 11:14:26;;;;;;;0.10;0.10;;;10.20;99.90;;;;;;5044690;28;20193;-81
2023/03/07 11:16:56;;;;;;;0.10;0.10;;;10.30;99.90;;;;;;5049119;28;20206;-82
2023/03/07 11:19:35;;;;;;;0.10;0.10;;;10.20;99.90;;;;;;5044277;28;20189;-82
2023/03/07 11:22:04;;;;;;;0.10;0.10;;;10.30;99.90;;;;;;5046670;28;20185;-82
2023/03/07 11:24:36;;;;;;;0.10;0.10;;;10.30;99.90;;;;;;5044470;28;20581;-81
2023/03/07 11:27:02;;;;;;;0.10;0.10;;;10.00;99.90;;;;;;5040993;28;20292;-82
2023/03/07 11:29:28;;;;;;;0.10;0.10;;;10.20;99.90;;;;;;5042762;28;20639;-82
2023/03/07 11:32:15;;;;;;;0.00;0.00;;;10.20;99.90;;;;;;5045019;28;20184;-82
2023/03/07 11:35:02;;;;;;;0.00;0.00;;;10.00;99.90;;;;;;5045661;28;20188;-81
2023/03/07 11:38:02;;;;;;;0.10;0.10;;;10.20;99.90;;;;;;5046052;28;20697;-82
2023/03/07 11:40:41;;;;;;;0.10;0.10;;;10.20;99.90;;;;;;5046594;28;20181;-82
2023/03/07 11:43:41;;;;;;;0.10;0.10;;;10.40;99.90;;;;;;5046245;28;20210;-82
2023/03/07 11:46:15;;;;;;;0.10;0.10;;;10.30;99.90;;;;;;5047598;28;20205;-82
2023/03/07 11:49:06;;;;;;;0.10;0.10;;;10.30;99.90;;;;;;5044358;28;20868;-82
2023/03/07 11:52:16;;;;;;;0.10;0.10;;;10.30;99.90;;;;;;5041492;28;20186;-82
2023/03/07 11:54:59;;;;;;;0.10;0.10;;;10.10;99.90;;;;;;4928729;28;20264;-82
2023/03/07 11:57:54;;;;;;;0.10;0.10;;;10.00;99.90;;;;;;4944356;29;20208;-82
2023/03/07 12:00:26;;;;;;;0.10;0.10;;;9.70;99.90;;;;;;5025612;28;20276;-82
2023/03/07 12:03:34;;;;;;;0.10;0.10;;;9.50;99.90;;;;;;5041413;28;20210;-81
2023/03/07 12:06:08;;;;;;;0.10;0.10;;;9.50;99.90;;;;;;5042101;28;20217;-82
2023/03/07 12:08:53;;;;;;;0.10;0.10;;;9.50;99.90;;;;;;5042479;28;20185;-82
2023/03/07 12:11:35;;;;;;;0.10;0.10;;;9.50;99.90;;;;;;5062574;28;20678;-82
2023/03/07 12:14:09;;;;;;;0.00;0.00;;;9.70;99.90;;;;;;5045759;28;20190;-82
2023/03/07 12:16:57;;;;;;;0.10;0.10;;;9.70;99.90;;;;;;5049231;28;20208;-82
2023/03/07 12:19:38;;;;;;;0.10;0.10;;;9.60;99.90;;;;;;5044719;28;20181;-82
2023/03/07 12:22:25;;;;;;;0.00;0.00;;;9.40;99.90;;;;;;5062393;28;20521;-85
2023/03/07 12:25:25;;;;;;;0.10;0.10;;;9.20;99.90;;;;;;5046922;28;20177;-83
2023/03/07 12:28:04;;;;;;;0.10;0.10;;;9.10;99.90;;;;;;5046766;28;20764;-82
2023/03/07 12:30:40;;;;;;;0.10;0.10;;;9.00;99.90;;;;;;5044868;28;20300;-81
2023/03/07 12:33:13;;;;;;;0.10;0.10;;;9.00;99.90;;;;;;5046465;28;20276;-82
2023/03/07 12:35:46;;;;;;;0.10;0.10;;;9.00;99.90;;;;;;5047613;28;20194;-86
2023/03/07 12:38:30;;;;;;;0.10;0.10;;;8.90;99.90;;;;;;5045527;28;20190;-82
2023/03/07 12:41:10;;;;;;;0.10;0.10;;;8.80;99.90;;;;;;5038398;28;20242;-82
2023/03/07 12:43:44;;;;;;;0.10;0.10;;;8.80;99.90;;;;;;5046151;28;21022;-83
2023/03/07 12:46:23;;;;;;;0.10;0.10;;;8.70;99.90;;;;;;5045069;28;20813;-83
2023/03/07 12:49:12;;;;;;;0.10;0.10;;;8.70;99.90;;;;;;5051152;28;20211;-83
2023/03/07 12:51:53;;;;;;;0.10;0.10;;;8.60;99.90;;;;;;5053032;28;20186;-82
2023/03/07 12:54:28;;;;;;;0.10;0.10;;;8.60;99.90;;;;;;5047947;28;20298;-82
2023/03/07 12:57:21;;;;;;;0.10;0.10;;;8.60;99.90;;;;;;5047260;28;20205;-83
2023/03/07 12:59:49;;;;;;;0.10;0.10;;;8.60;99.90;;;;;;5049912;28;20840;-83
2023/03/07 13:02:28;;;;;;;0.10;0.10;;;8.60;99.90;;;;;;5050104;28;20225;-84
2023/03/07 13:04:54;;;;;;;0.10;0.10;;;8.70;99.90;;;;;;5049611;28;20278;-83
2023/03/07 13:07:29;;;;;;;0.10;0.10;;;8.60;99.90;;;;;;5050094;28;20213;-84
2023/03/07 13:09:58;;;;;;;0.10;0.10;;;8.60;99.90;;;;;;5049797;28;20191;-83